Aviation Digital Data Service (ADDS)

Output produced by METARs form (2053 UTC 29 May 2017)
found at http://www.aviationweather.gov/adds/metars/
 
LFLB 292030Z AUTO 00000KT CAVOK 21/12 Q1016
TAF LFLB 291100Z 2912/3012 36006KT CAVOK 
     BECMG 2914/2916 20006KT 
     PROB30 
     TEMPO 2914/2918 FEW080CB
       
LFBZ 292030Z AUTO 27004KT 230V310 9999 OVC008 17/16 Q1017 TEMPO SHRA BKN010 BKN040TCU
TAF LFBZ 291700Z 2918/3018 26010KT 9999 BKN015 
     TEMPO 2918/2923 SHRA BKN010 BKN040TCU 
     PROB30 
     TEMPO 2918/2921 3000 TSRA BKN005 BKN040CB 
     TEMPO 2923/3013 3000 -RA
       
LFRT 292030Z AUTO 32003KT 9999 FEW023 BKN040 BKN180 14/12 Q1015
LFRM 292030Z AUTO 26003KT 220V300 9999 FEW031 OVC130 20/16 Q1015 NOSIG
TAF LFRM 291700Z 2918/3003 22007KT CAVOK 
     PROB30 
     TEMPO 2918/2921 VRB15G25KT 2000 TSRA SCT010 BKN035CB 
     BECMG 2923/3001 BKN006
       
LFLW 292030Z AUTO 12003KT CAVOK 18/12 Q1017
TAF LFLW 291400Z 2915/2924 16008G18KT CAVOK 
     BECMG 2915/2918 SCT040TCU 
     PROB40 
     TEMPO 2918/2921 30015G25KT SHRA SCT020CB BKN040 
     PROB40 
     TEMPO 2918/2924 TSRA BKN020CB
       
LFLC 292030Z AUTO 08003KT CAVOK 20/14 Q1016 NOSIG
TAF LFLC 292000Z 2921/3021 VRB05KT CAVOK 
     TEMPO 3006/3015 SHRA 
     PROB40 
     TEMPO 3012/3021 VRB10G25KT TSRA BKN050CB
       
LFOA 292030Z AUTO 31004KT CAVOK 21/14 Q1016 TEMPO 4000 SHRA SCT012 BKN035TCU
TAF LFOA 292000Z 2921/3021 31008KT CAVOK 
     TEMPO 2921/3018 4000 SHRA SCT012 BKN035TCU 
     PROB30 
     TEMPO 3014/3018 2500 -TSRA BKN025CB
       
LFSB 292035Z 16007KT 140V200 9999 -TSRA SCT060CB SCT096 BKN110 25/11 Q1015 NOSIG
TAF AMD LFSB 291943Z 2919/3018 27005KT CAVOK 
     TEMPO 2919/2922 4000 TSRA BKN060CB 
     TEMPO 3010/3018 FEW060CB 
     TEMPO 3012/3018 3000 TSRA SCT060CB 
     PROB30 
     TEMPO 3014/3018 TSGRRA
       
LFQB 292030Z AUTO 28011KT CAVOK 22/16 Q1014
LFBL 292030Z AUTO 36004KT 330V030 CAVOK 18/16 Q1017 TEMPO BKN030 FEW080CB OVC100
TAF LFBL 291700Z 2918/3018 30008KT 9999 FEW035TCU BKN100 
     TEMPO 2918/3001 BKN030 FEW080CB OVC100 
     BECMG 3001/3003 SCT040 BKN080 
     BECMG 3008/3010 SCT020TCU BKN080 
     PROB40 
     TEMPO 3010/3018 4000 SHRA BKN020 FEW030CB OVC050 
     PROB30 
     TEMPO 3011/3016 VRB20G30KT TSRA
       
LFBI 292030Z AUTO 23005KT CAVOK 18/13 Q1016 TEMPO BKN020TCU
TAF LFBI 291700Z 2918/3018 28008KT CAVOK 
     TEMPO 2918/2924 -SHRA BKN020TCU 
     PROB30 
     TEMPO 2918/2921 -TSRA BKN030CB 
     PROB40 3000/3004 OVC008 
     PROB40 3004/3008 OVC005 
     TEMPO 3010/3018 BKN025TCU
       
LFBO 292030Z AUTO VRB02KT 9999 -RA ///TCU 21/17 Q1015 TEMPO SCT040 FEW080CB BKN130
TAF LFBO 291700Z 2918/3024 VRB03KT CAVOK 
     TEMPO 2918/3003 SCT040 FEW080CB BKN130 
     BECMG 3002/3004 27010KT BKN012 SCT040TCU OVC100 
     TEMPO 3005/3010 4000 SHRA BKN008 FEW030CB OVC080 
     BECMG 3010/3012 BKN016 BKN050 
     BECMG 3012/3014 SCT020TCU BKN120 
     BECMG 3014/3016 BKN030 FEW050CB OVC120 
     PROB40 
     TEMPO 3016/3024 4000 SHRA 
     PROB30 
     TEMPO 3017/3022 VRB20G30KT TSRA
       
LFMH 292030Z AUTO 16009KT CAVOK 22/08 Q1016
TAF LFMH 291400Z 2915/3015 20010G20KT CAVOK 
     BECMG 2921/2924 VRB05KT 
     BECMG 3009/3012 FEW033TCU 
     PROB40 
     TEMPO 3012/3015 TS FEW040CB
       
LFAQ 292030Z AUTO 02004KT 9999 ///CB 19/16 Q1014
TAF LFAQ 291400Z 2915/2924 33010KT CAVOK 
     TEMPO 2915/2923 VRB20G35KT 3000 TSRA BKN040CB 
     PROB40 
     TEMPO 2920/2923 1200 TSRAGR
       
LFOJ 292030Z AUTO VRB03KT CAVOK 20/16 Q1015 TEMPO VRB15G25KT SCT050TCU
TAF LFOJ 292000Z 2921/3021 26010KT CAVOK 
     TEMPO 2921/2923 VRB15G25KT 5000 -SHRA SCT050TCU 
     BECMG 2923/3001 BKN011 
     PROB30 
     TEMPO 3002/3006 BKN007 
     BECMG 3006/3008 BKN015 SCT020TCU
       
LFBU 292030Z AUTO 31006KT CAVOK 18/14 Q1016 TEMPO SHRA BKN008 BKN030TCU
TAF LFBU 291700Z 2918/3018 30008KT CAVOK 
     TEMPO 2918/2921 -SHRA BKN030TCU 
     PROB30 
     TEMPO 2918/2921 4000 TSRA BKN012 BKN030CB 
     TEMPO 2921/2924 SHRA BKN008 BKN030TCU 
     PROB40 3000/3008 -RA BKN005 
     TEMPO 3010/3018 BKN025TCU
       
LFLY 292030Z AUTO 18009KT CAVOK 24/11 Q1015 NOSIG
TAF LFLY 291700Z 2918/3018 18013KT CAVOK 
     TEMPO 3003/3011 VRB03KT
       
LFKJ 292030Z AUTO 05005KT CAVOK 20/08 Q1016 NOSIG
TAF LFKJ 292000Z 2921/3021 05006KT CAVOK 
     BECMG 3009/3010 27010KT
       
LFMO 292030Z AUTO 17003KT CAVOK 22/11 Q1016 NOSIG
TAF LFMO 292000Z 2921/3021 19005KT CAVOK 
     BECMG 2921/2922 VRB02KT 
     BECMG 3012/3015 20012KT
       
LFRK 292030Z AUTO 27008KT 9999 OVC007 16/15 Q1015
TAF AMD LFRK 291616Z 2916/2924 27010KT 9999 SCT020 
     TEMPO 2916/2922 4000 SHRA BKN008 BKN030CB 
     PROB30 
     TEMPO 2916/2922 3000 TSRA BKN015CB
       
LFMV 292030Z AUTO 18004KT CAVOK 20/13 Q1016
TAF AMD LFMV 291646Z 2916/3015 18008KT CAVOK 
     BECMG 2922/2924 VRB03KT 
     PROB30 
     TEMPO 3004/3006 3000 BR SCT005 
     BECMG 3012/3014 20010KT
       
LFBC 292030Z AUTO 31004KT 9999 SCT026 BKN100 BKN130 18/16 Q1017
TAF LFBC 291400Z 2915/3015 31008KT 9999 BKN008 
     TEMPO 2919/2921 CAVOK 
     PROB40 
     TEMPO 3003/3012 5000 SHRA BKN012 BKN030TCU
       
LFLU 291800Z AUTO 17008KT CAVOK 25/11 Q1014
LFPG 292030Z 29006KT CAVOK 22/15 Q1015 TEMPO SCT050TCU
TAF AMD LFPG 291903Z 2918/3024 27008KT CAVOK 
     TEMPO 2919/2922 SCT050TCU 
     PROB30 
     TEMPO 2919/2922 4000 -SHRA 
     PROB40 
     TEMPO 3003/3007 4500 SHRA BKN010 TX23/2919Z TN15/3024Z
       
LFBG 292030Z AUTO 24003KT CAVOK 19/15 Q1016
TAF LFBG 291400Z 2915/3015 31010KT 9999 BKN035 
     TEMPO 2915/2918 4000 SHRA BKN030TCU 
     BECMG 3001/3003 BKN003 
     BECMG 3006/3008 SCT020
       
LFOC 292030Z AUTO 18003KT CAVOK 19/16 Q1015
TAF LFOC 291400Z 2915/3015 27012KT CAVOK 
     TEMPO 2915/2920 4000 SHRA SCT040TCU 
     PROB40 
     TEMPO 2915/2918 VRB15G25KT 3000 TSRA BKN020 SCT040CB 
     BECMG 3003/3004 BKN015
       
LFPT 292030Z AUTO VRB02KT 9999 -RA FEW047 OVC086 19/17 Q1014
LFMN 292030Z 00000KT CAVOK 21/17 Q1016 NOSIG
TAF LFMN 292000Z 2921/3103 VRB03KT CAVOK 
     BECMG 2922/2924 34010KT 
     BECMG 3007/3009 10010KT 
     PROB30 
     TEMPO 3008/3014 SCT010 
     BECMG 3018/3020 34010KT
       
LFLX 292030Z AUTO 25003KT 9999 FEW049 BKN130 OVC160 19/16 Q1016 NOSIG
TAF LFLX 291700Z 2918/3024 30006KT CAVOK 
     TEMPO 2918/2920 25015G25KT 3000 SHRA SCT040CB BKN050 
     PROB30 
     TEMPO 2918/2920 20020G35KT 1500 TSRA SCT010 BKN040CB 
     TEMPO 3003/3007 BKN008 
     BECMG 3007/3009 SCT020 
     BECMG 3009/3011 SCT030 
     BECMG 3018/3021 CAVOK
       
LFOV 292030Z AUTO 34005KT 310V010 9999 OVC006 16/15 Q1015
LFST 292030Z AUTO VRB03KT CAVOK 25/13 Q1013 NOSIG
TAF LFST 291700Z 2918/3018 30005KT CAVOK 
     TEMPO 2922/3003 VRB03KT 
     BECMG 3009/3012 SCT055 FEW060CB 
     PROB40 
     TEMPO 3012/3018 30015G27KT 4500 TSRA BKN045 SCT050CB
       
LFSN 292030Z AUTO VRB02KT CAVOK 25/13 Q1014
LFOE 292030Z AUTO 22005KT CAVOK 18/15 Q1015
TAF LFOE 292000Z 2921/3021 24005KT CAVOK 
     BECMG 2921/2923 31010KT BKN008 
     TEMPO 3000/3005 BKN005 
     BECMG 3005/3008 BKN020
       
LFQG 291800Z AUTO 26006KT CAVOK 25/15 Q1014
LFTW 292030Z AUTO 22004KT CAVOK 20/14 Q1016
TAF LFTW 291400Z 2915/3015 18010KT CAVOK 
     TEMPO 2921/3005 BKN005 
     PROB30 
     TEMPO 2921/3003 4000 BR BKN003 
     TEMPO 2922/3012 VRB03KT
       
LFRB 292030Z AUTO 24008KT 9999 BKN010 BKN016 OVC032 15/13 Q1016 BECMG SCT025
TAF AMD LFRB 292040Z 2920/3024 24008KT 9999 BKN010 BKN016 OVC032 
     PROB30 
     TEMPO 3000/3006 3000 BR OVC004
       
LFGA 292030Z AUTO 24005KT 200V260 CAVOK 26/11 Q1014
LFBH 292030Z AUTO 30010KT 9999 FEW008 SCT100 BKN120 17/15 Q1016 TEMPO BKN005
TAF AMD LFBH 291714Z 2918/3018 28008KT 9999 BKN015 
     PROB40 2918/3008 BKN005 
     TEMPO 3012/3018 30012G22KT SCT030TCU
       
LFBA 292030Z AUTO 28004KT 9999 ///TCU 21/16 Q1015
TAF LFBA 291400Z 2915/2924 36007KT CAVOK 
     TEMPO 2915/2921 4000 SHRA BKN010 BKN035TCU 
     PROB40 
     TEMPO 2915/2918 3000 TSRA BKN010 BKN035CB
       
LFRJ 292030Z AUTO 23009KT 9999 FEW009 SCT029 OVC035 15/13 Q1016
TAF LFRJ 291400Z 2915/2924 30008KT 9999 BKN016 
     BECMG 2919/2921 23010KT BKN010
       
LFRH 292030Z AUTO 28005KT CAVOK 15/13 Q1016 TEMPO SHRA SCT015TCU
TAF LFRH 291700Z 2918/3018 25010KT 9999 SCT020 BKN025 
     PROB30 
     TEMPO 2918/2922 SHRA SCT015TCU 
     BECMG 2922/2924 OVC015 
     PROB30 
     TEMPO 3000/3007 3000 BR OVC005 
     BECMG 3008/3010 OVC025 
     BECMG 3014/3016 25010G20KT SCT035
       
LFRO 292030Z AUTO 24004KT 9999 OVC042 14/12 Q1016 BECMG BKN014
TAF AMD LFRO 291724Z 2917/3012 26010KT 9999 FEW020 BKN030 
     BECMG 2918/2921 BKN014 
     PROB30 
     TEMPO 3000/3006 3000 BR OVC003 
     BECMG 3009/3012 SCT020
       
LFPB 292030Z AUTO 26006KT CAVOK 22/16 Q1014 TEMPO 4000 -SHRA SCT050TCU
TAF AMD LFPB 291905Z 2919/3018 27008KT CAVOK 
     TEMPO 2919/2922 SCT050TCU 
     PROB30 
     TEMPO 2919/2922 4000 -SHRA 
     PROB40 
     TEMPO 3003/3007 4500 SHRA BKN012
       
LFMC 292030Z AUTO 00000KT 9999 ////// 20/09 Q1016
LFTH 292030Z AUTO 00000KT CAVOK 19/16 Q1016 NOSIG
TAF LFTH 292000Z 2921/3021 VRB02KT CAVOK 
     BECMG 3010/3012 22012KT 
     BECMG 3014/3016 VRB02KT 
     TEMPO 3016/3021 SHRA BKN040TCU
       
LFAT 292030Z AUTO VRB02KT CAVOK 18/15 Q1013
TAF LFAT 291400Z 2915/2924 27008KT CAVOK 
     PROB30 
     TEMPO 2915/2917 VRB20G30KT 1500 TSRA BKN040CB 
     BECMG 2917/2919 BKN006 
     TEMPO 2917/2922 1500 RA OVC002 
     PROB30 
     TEMPO 2917/2922 TSRAGR BKN030CB
       
LFMI 292030Z AUTO 15004KT CAVOK 21/13 Q1016 NOSIG
TAF LFMI 292000Z 2921/3021 VRB02KT CAVOK 
     BECMG 3010/3012 20012KT 
     TEMPO 3016/3021 SHRA BKN040TCU
       
LFRI 292030Z AUTO 28004KT 9999 BKN010 BKN080 OVC100 16/15 Q1016 BECMG SCT012 SCT025
TAF AMD LFRI 292046Z 2920/3018 24006KT 9999 BKN010 BKN080 
     BECMG 2921/2923 32006KT 
     PROB30 
     TEMPO 3005/3007 4000 BR 
     BECMG 3007/3009 BKN020 
     BECMG 3015/3017 CAVOK
       
LFQQ 292030Z AUTO 18002KT 9999 ///TCU 21/16 Q1013 TEMPO VRB20G30KT 2000 TSRA BKN040CB
TAF LFQQ 291700Z 2918/3024 30010KT CAVOK 
     PROB40 
     TEMPO 2921/2924 VRB20G30KT 2000 TSRA BKN040CB 
     BECMG 3002/3005 24010KT BKN008 
     BECMG 3006/3008 BKN020
       
LFSD 292030Z AUTO 34004KT 330V030 CAVOK 22/12 Q1014
LFBT 292030Z AUTO 20004KT 9999 FEW100 17/14 Q1017 TEMPO 4000 SHRA SCT040CB
TAF AMD LFBT 291814Z 2918/3018 10003KT 9999 BKN100 
     PROB30 
     TEMPO 2921/3003 4000 SHRA SCT040CB 
     TEMPO 3012/3018 4000 -SHRA 
     PROB30 
     TEMPO 3012/3018 2000 TSRA BKN005 BKN030CB
       
LFMD 292030Z AUTO VRB03KT CAVOK 20/13 Q1016 NOSIG
TAF LFMD 291400Z 2915/3015 16008KT CAVOK 
     BECMG 2920/2922 34010KT 
     BECMG 3007/3009 16010KT
       
LFJR 292030Z AUTO 22005KT 9999 FEW022 BKN100 19/16 Q1015
TAF LFJR 291100Z 2912/2921 28007KT 9999 SCT020 SCT050TCU 
     TEMPO 2912/2918 4000 SHRA BKN010 SCT040CB 
     PROB40 
     TEMPO 2914/2918 VRB15G25KT 2000 TSGRRA BKN008 BKN030CB
       
LFCR 292030Z AUTO 19002KT CAVOK 18/12 Q1017 TEMPO FEW050TCU BKN130
TAF LFCR 291700Z 2918/3018 16006KT CAVOK 
     TEMPO 2918/3006 FEW050TCU BKN130 
     BECMG 3008/3010 SCT030TCU BKN100 
     PROB40 
     TEMPO 3011/3018 27010KT 4000 SHRA BKN025 FEW030CB OVC100 
     PROB30 
     TEMPO 3014/3018 VRB20G30KT TSRA
       
LFRC 292030Z AUTO 24008KT 9999 FEW005 12/12 Q1014
TAF LFRC 291400Z 2915/2924 24010KT 9999 BKN015 
     TEMPO 2915/2924 2000 BR BKN003
       
LFCK 292030Z AUTO VRB01KT CAVOK 20/12 Q1017 NOSIG
TAF LFCK 291700Z 2918/3003 13008KT CAVOK
       
LFMT 292030Z AUTO 20004KT CAVOK 21/12 Q1016 NOSIG
TAF LFMT 292000Z 2921/3021 16006KT CAVOK 
     BECMG 2921/2923 VRB02KT 
     BECMG 3001/3003 BKN005 
     BECMG 3010/3012 18010KT 
     BECMG 3019/3021 VRB02KT 
     TEMPO 3018/3021 SHRA BKN015TCU
       
LFBD 292030Z AUTO 34004KT 310V010 9999 ///TCU 19/16 Q1016 TEMPO 4000 -RA BKN030CB
TAF LFBD 291700Z 2918/3024 30008KT CAVOK 
     TEMPO 2918/2922 SHRA BKN030TCU 
     PROB30 
     TEMPO 2918/2922 TSRA BKN030CB 
     TEMPO 2922/2924 BKN012 BKN030TCU 
     PROB40 2922/3008 4000 -RA BKN012 
     TEMPO 3012/3018 -SHRA BKN030TCU TX24/3014Z TN16/3006Z
       
LFJL 291930Z AUTO 18008KT 9999 NCD 24/11 Q1013 NOSIG
TAF LFJL 291700Z 2918/3018 18008KT CAVOK 
     BECMG 3008/3010 27010KT BKN050 FEW055TCU 
     PROB30 
     TEMPO 3010/3016 30012G25KT 4500 TSRA SCT045CB 
     BECMG 3016/3018 SCT050
       
LFRV 292030Z AUTO 27003KT CAVOK 15/14 Q1015
LFLP 292030Z AUTO 06005KT CAVOK 22/14 Q1017
TAF LFLP 291400Z 2915/3015 22008KT CAVOK 
     PROB40 
     TEMPO 2915/2918 FEW080CB 
     BECMG 2918/2921 VRB02KT
       
LFSG 292030Z AUTO 19003KT 180V270 CAVOK 22/14 Q1015
LFBM 292030Z AUTO 32008KT 6000 -RA FEW034/// SCT040/// BKN054/// ///CB 18/18 Q1016
TAF LFBM 292000Z 2921/3021 20008KT 9999 SCT030 BKN100 
     BECMG 2922/2923 BKN014 OVC040 
     TEMPO 2923/3008 RADZ BKN008 
     BECMG 3009/3012 BKN030 
     TEMPO 3012/3021 SHRA SCT014
       
LFRZ 292030Z AUTO 27006KT 9999 FEW010 BKN068 16/14 Q1016 NOSIG
TAF LFRZ 291700Z 2918/3018 28008KT 9999 SCT012 SCT025 
     TEMPO 2918/2920 BKN010 
     BECMG 3002/3005 BKN015 
     BECMG 3007/3009 BKN020 
     BECMG 3015/3017 CAVOK
       
LFRS 292030Z AUTO 25004KT 9999 FEW043 BKN100 15/14 Q1016 NOSIG
TAF LFRS 291700Z 2918/3024 24006KT 9999 SCT012 SCT025 
     PROB30 
     TEMPO 2918/2920 BKN010 
     BECMG 2920/2922 32006KT 
     BECMG 3002/3005 BKN015 
     BECMG 3007/3009 BKN020 
     BECMG 3016/3018 CAVOK
       
LFSO 292030Z AUTO 22003KT CAVOK 23/13 Q1015 NOSIG
TAF LFSO 292000Z 2921/3021 28005KT CAVOK 
     PROB40 
     TEMPO 3008/3015 VRB15G25KT 3000 SHRA SCT035 BKN060CB 
     PROB30 
     TEMPO 3011/3017 VRB15G30KT 1500 TSRA BKN040 BKN050CB
       
LFOH 292030Z AUTO 29007KT 1000 0900 R22/1200D -RA BCFG VV/// 15/14 Q1015
TAF LFOH 291100Z 2912/3012 25010KT CAVOK 
     PROB40 
     TEMPO 2912/2918 VRB20G30KT 1500 TSRA BKN030CB 
     BECMG 2918/2920 BKN006 
     TEMPO 2918/3002 1500 RA OVC002 
     PROB30 
     TEMPO 2918/3002 TSRA BKN030CB 
     BECMG 3005/3008 BKN020
       
LFPO 292030Z 28007KT CAVOK 21/15 Q1015 NOSIG
TAF AMD LFPO 291926Z 2919/3024 27008KT CAVOK 
     PROB30 
     TEMPO 2919/2922 27015G25KT 6000 SHRA BKN025 
     TEMPO 3003/3008 24005KT SHRA SCT012 BKN025 BKN070TCU 
     BECMG 3008/3011 30010KT BKN040 
     BECMG 3018/3021 36005KT CAVOK
       
LFBP 292030Z AUTO 29009KT 9999 BKN007 BKN130 BKN190 19/17 Q1016 TEMPO BKN040TCU
TAF LFBP 291700Z 2918/3018 30010KT 9999 BKN030 
     TEMPO 2918/2924 -SHRA BKN040TCU 
     PROB40 
     TEMPO 2918/2921 3000 TSRA BKN020CB 
     TEMPO 3001/3018 2000 RA BKN005 BKN035TCU 
     PROB30 
     TEMPO 3012/3018 TSRA BKN035CB
       
LFRD 292030Z AUTO 05003KT 8000 1700 FEW017 13/12 Q1015 TEMPO BKN008
TAF LFRD 291700Z 2918/3018 30005KT 9999 BKN020 
     TEMPO 2918/2921 4000 SHRA BKN030TCU 
     PROB30 
     TEMPO 2918/3006 BKN008 
     BECMG 3000/3002 VRB03KT 
     BECMG 3009/3012 33010KT
       
LFRU 292000Z AUTO 24007KT 9999 FEW021 OVC041 15/12 Q1015
LFRQ 292030Z AUTO 27004KT 9999 FEW014 BKN036 15/13 Q1016 NOSIG
TAF LFRQ 291700Z 2918/3003 27010KT 9999 SCT025 
     PROB30 
     TEMPO 3000/3003 3000 BR OVC004
       
LFKB 292030Z 22002KT CAVOK 19/18 Q1016 NOSIG
TAF LFKB 292000Z 2921/3021 VRB05KT CAVOK 
     BECMG 3011/3012 14010KT 
     TEMPO 3012/3018 14010G20KT TX28/3012Z TN16/3003Z
       
LFRL 292030Z AUTO 23007KT 9999 BKN006 BKN010 BKN015 15/13 Q1016
TAF LFRL 291400Z 2915/2924 28008KT 9999 BKN025 
     TEMPO 2915/2919 BKN013 
     BECMG 2919/2921 BKN010
       
LFML 292030Z AUTO VRB02KT CAVOK 21/15 Q1016 NOSIG
TAF LFML 292000Z 2921/3103 VRB02KT CAVOK 
     BECMG 3010/3012 20012KT 
     TEMPO 3016/3022 SHRA BKN040TCU 
     BECMG 3022/3024 VRB02KT TX29/3013Z TN16/3103Z
       
LFQA 292030Z AUTO VRB02KT CAVOK 20/16 Q1013
LFMP 292030Z AUTO 02006KT CAVOK 21/13 Q1015 NOSIG
TAF LFMP 291400Z 2915/3015 11012KT CAVOK 
     TEMPO 2920/3011 VRB05KT 
     TEMPO 3003/3006 BKN005 
     TEMPO 3008/3012 SHRA BKN070TCU
       
LFSI 292030Z AUTO 23003KT CAVOK 24/16 Q1014
TAF LFSI 292000Z 2921/3021 27008KT CAVOK 
     TEMPO 2921/3006 FEW050CB SCT080 
     TEMPO 3006/3015 30015G25KT 3000 SHRA SCT030 BKN050CB
       
LFBE 292030Z AUTO 31003KT CAVOK 20/17 Q1016
TAF LFBE 291100Z 2912/3012 30008KT CAVOK 
     TEMPO 2912/2915 -TSRA BKN050CB 
     TEMPO 2915/2921 31015G25KT 3000 TSRA BKN013 BKN030CB 
     PROB40 3000/3008 SHRA BKN006 BKN060TCU
       
LFKC 292030Z AUTO 17005KT CAVOK 19/15 Q1016 NOSIG
TAF LFKC 291700Z 2918/3018 18007KT CAVOK 
     BECMG 3008/3011 35012KT SCT050 BKN260 TX28/3012Z TN15/3003Z
       
LFLL 292030Z 14006KT CAVOK 24/10 Q1015 NOSIG
TAF LFLL 291700Z 2918/3024 18010KT CAVOK 
     TEMPO 3006/3012 VRB04KT 
     PROB30 
     TEMPO 3018/3024 34015G25KT 5000 TSRA SCT015 BKN040CB
       
LFLS 292030Z AUTO VRB03KT CAVOK 20/10 Q1017
TAF LFLS 291400Z 2915/3015 22010KT CAVOK 
     BECMG 3002/3004 VRB03KT
       
LFSX 292030Z AUTO 11002KT CAVOK 22/14 Q1015 NOSIG
TAF LFSX 292000Z 2921/3021 12004KT CAVOK 
     TEMPO 3012/3018 3500 SHRA SCT050TCU 
     PROB40 
     TEMPO 3012/3018 VRB15G25KT 2000 TSRA SCT040CB
       
LFLN 292030Z AUTO 26003KT CAVOK 21/15 Q1015 NOSIG
TAF LFLN 291700Z 2918/3003 33008KT CAVOK
       
LFMY 292030Z AUTO 20002KT CAVOK 21/11 Q1016
TAF LFMY 291400Z 2915/3015 20015KT CAVOK 
     BECMG 2920/2922 VRB02KT 
     BECMG 3011/3013 21012KT
       
LFMK 292030Z AUTO 11005KT 080V160 CAVOK 21/11 Q1016
TAF AMD LFMK 291516Z 2915/3015 30005KT CAVOK 
     TEMPO 2915/2920 09015KT 
     BECMG 2921/2923 27010KT 
     TEMPO 2920/2923 SHRA NSC 
     TEMPO 3008/3015 SHRA BKN060TCU
       
LFKS 292030Z AUTO VRB03KT 9999 FEW076 20/14 Q1017
TAF LFKS 291400Z 2915/3015 14008KT 9999 FEW040
       
LFAQ 292030Z AUTO 02004KT 9999 ///CB 19/16 Q1014
TAF LFAQ 291400Z 2915/2924 33010KT CAVOK 
     TEMPO 2915/2923 VRB20G35KT 3000 TSRA BKN040CB 
     PROB40 
     TEMPO 2920/2923 1200 TSRAGR
       
LFAT 292030Z AUTO VRB02KT CAVOK 18/15 Q1013
TAF LFAT 291400Z 2915/2924 27008KT CAVOK 
     PROB30 
     TEMPO 2915/2917 VRB20G30KT 1500 TSRA BKN040CB 
     BECMG 2917/2919 BKN006 
     TEMPO 2917/2922 1500 RA OVC002 
     PROB30 
     TEMPO 2917/2922 TSRAGR BKN030CB
       
LFBA 292030Z AUTO 28004KT 9999 ///TCU 21/16 Q1015
TAF LFBA 291400Z 2915/2924 36007KT CAVOK 
     TEMPO 2915/2921 4000 SHRA BKN010 BKN035TCU 
     PROB40 
     TEMPO 2915/2918 3000 TSRA BKN010 BKN035CB
       
LFBC 292030Z AUTO 31004KT 9999 SCT026 BKN100 BKN130 18/16 Q1017
TAF LFBC 291400Z 2915/3015 31008KT 9999 BKN008 
     TEMPO 2919/2921 CAVOK 
     PROB40 
     TEMPO 3003/3012 5000 SHRA BKN012 BKN030TCU
       
LFBD 292030Z AUTO 34004KT 310V010 9999 ///TCU 19/16 Q1016 TEMPO 4000 -RA BKN030CB
TAF LFBD 291700Z 2918/3024 30008KT CAVOK 
     TEMPO 2918/2922 SHRA BKN030TCU 
     PROB30 
     TEMPO 2918/2922 TSRA BKN030CB 
     TEMPO 2922/2924 BKN012 BKN030TCU 
     PROB40 2922/3008 4000 -RA BKN012 
     TEMPO 3012/3018 -SHRA BKN030TCU TX24/3014Z TN16/3006Z
       
LFBE 292030Z AUTO 31003KT CAVOK 20/17 Q1016
TAF LFBE 291100Z 2912/3012 30008KT CAVOK 
     TEMPO 2912/2915 -TSRA BKN050CB 
     TEMPO 2915/2921 31015G25KT 3000 TSRA BKN013 BKN030CB 
     PROB40 3000/3008 SHRA BKN006 BKN060TCU
       
LFBG 292030Z AUTO 24003KT CAVOK 19/15 Q1016
TAF LFBG 291400Z 2915/3015 31010KT 9999 BKN035 
     TEMPO 2915/2918 4000 SHRA BKN030TCU 
     BECMG 3001/3003 BKN003 
     BECMG 3006/3008 SCT020
       
LFBH 292030Z AUTO 30010KT 9999 FEW008 SCT100 BKN120 17/15 Q1016 TEMPO BKN005
TAF AMD LFBH 291714Z 2918/3018 28008KT 9999 BKN015 
     PROB40 2918/3008 BKN005 
     TEMPO 3012/3018 30012G22KT SCT030TCU
       
LFBI 292030Z AUTO 23005KT CAVOK 18/13 Q1016 TEMPO BKN020TCU
TAF LFBI 291700Z 2918/3018 28008KT CAVOK 
     TEMPO 2918/2924 -SHRA BKN020TCU 
     PROB30 
     TEMPO 2918/2921 -TSRA BKN030CB 
     PROB40 3000/3004 OVC008 
     PROB40 3004/3008 OVC005 
     TEMPO 3010/3018 BKN025TCU
       
LFBL 292030Z AUTO 36004KT 330V030 CAVOK 18/16 Q1017 TEMPO BKN030 FEW080CB OVC100
TAF LFBL 291700Z 2918/3018 30008KT 9999 FEW035TCU BKN100 
     TEMPO 2918/3001 BKN030 FEW080CB OVC100 
     BECMG 3001/3003 SCT040 BKN080 
     BECMG 3008/3010 SCT020TCU BKN080 
     PROB40 
     TEMPO 3010/3018 4000 SHRA BKN020 FEW030CB OVC050 
     PROB30 
     TEMPO 3011/3016 VRB20G30KT TSRA
       
LFBM 292030Z AUTO 32008KT 6000 -RA FEW034/// SCT040/// BKN054/// ///CB 18/18 Q1016
TAF LFBM 292000Z 2921/3021 20008KT 9999 SCT030 BKN100 
     BECMG 2922/2923 BKN014 OVC040 
     TEMPO 2923/3008 RADZ BKN008 
     BECMG 3009/3012 BKN030 
     TEMPO 3012/3021 SHRA SCT014
       
LFBO 292030Z AUTO VRB02KT 9999 -RA ///TCU 21/17 Q1015 TEMPO SCT040 FEW080CB BKN130
TAF LFBO 291700Z 2918/3024 VRB03KT CAVOK 
     TEMPO 2918/3003 SCT040 FEW080CB BKN130 
     BECMG 3002/3004 27010KT BKN012 SCT040TCU OVC100 
     TEMPO 3005/3010 4000 SHRA BKN008 FEW030CB OVC080 
     BECMG 3010/3012 BKN016 BKN050 
     BECMG 3012/3014 SCT020TCU BKN120 
     BECMG 3014/3016 BKN030 FEW050CB OVC120 
     PROB40 
     TEMPO 3016/3024 4000 SHRA 
     PROB30 
     TEMPO 3017/3022 VRB20G30KT TSRA
       
LFBP 292030Z AUTO 29009KT 9999 BKN007 BKN130 BKN190 19/17 Q1016 TEMPO BKN040TCU
TAF LFBP 291700Z 2918/3018 30010KT 9999 BKN030 
     TEMPO 2918/2924 -SHRA BKN040TCU 
     PROB40 
     TEMPO 2918/2921 3000 TSRA BKN020CB 
     TEMPO 3001/3018 2000 RA BKN005 BKN035TCU 
     PROB30 
     TEMPO 3012/3018 TSRA BKN035CB
       
LFBT 292030Z AUTO 20004KT 9999 FEW100 17/14 Q1017 TEMPO 4000 SHRA SCT040CB
TAF AMD LFBT 291814Z 2918/3018 10003KT 9999 BKN100 
     PROB30 
     TEMPO 2921/3003 4000 SHRA SCT040CB 
     TEMPO 3012/3018 4000 -SHRA 
     PROB30 
     TEMPO 3012/3018 2000 TSRA BKN005 BKN030CB
       
LFBU 292030Z AUTO 31006KT CAVOK 18/14 Q1016 TEMPO SHRA BKN008 BKN030TCU
TAF LFBU 291700Z 2918/3018 30008KT CAVOK 
     TEMPO 2918/2921 -SHRA BKN030TCU 
     PROB30 
     TEMPO 2918/2921 4000 TSRA BKN012 BKN030CB 
     TEMPO 2921/2924 SHRA BKN008 BKN030TCU 
     PROB40 3000/3008 -RA BKN005 
     TEMPO 3010/3018 BKN025TCU
       
LFBY 292030Z AUTO 28005KT 240V300 9999 // SCT022/// BKN029/// BKN036/// ///TCU 18/17 Q1017
LFBZ 292030Z AUTO 27004KT 230V310 9999 OVC008 17/16 Q1017 TEMPO SHRA BKN010 BKN040TCU
TAF LFBZ 291700Z 2918/3018 26010KT 9999 BKN015 
     TEMPO 2918/2923 SHRA BKN010 BKN040TCU 
     PROB30 
     TEMPO 2918/2921 3000 TSRA BKN005 BKN040CB 
     TEMPO 2923/3013 3000 -RA
       
LFCK 292030Z AUTO VRB01KT CAVOK 20/12 Q1017 NOSIG
TAF LFCK 291700Z 2918/3003 13008KT CAVOK
       
LFCR 292030Z AUTO 19002KT CAVOK 18/12 Q1017 TEMPO FEW050TCU BKN130
TAF LFCR 291700Z 2918/3018 16006KT CAVOK 
     TEMPO 2918/3006 FEW050TCU BKN130 
     BECMG 3008/3010 SCT030TCU BKN100 
     PROB40 
     TEMPO 3011/3018 27010KT 4000 SHRA BKN025 FEW030CB OVC100 
     PROB30 
     TEMPO 3014/3018 VRB20G30KT TSRA
       
LFGA 292030Z AUTO 24005KT 200V260 CAVOK 26/11 Q1014
LFGJ 292030Z AUTO 13001KT CAVOK 22/11 Q1014
TAF LFGJ 291400Z 2915/2924 20010KT CAVOK
       
LFJL 291930Z AUTO 18008KT 9999 NCD 24/11 Q1013 NOSIG
TAF LFJL 291700Z 2918/3018 18008KT CAVOK 
     BECMG 3008/3010 27010KT BKN050 FEW055TCU 
     PROB30 
     TEMPO 3010/3016 30012G25KT 4500 TSRA SCT045CB 
     BECMG 3016/3018 SCT050
       
LFJR 292030Z AUTO 22005KT 9999 FEW022 BKN100 19/16 Q1015
TAF LFJR 291100Z 2912/2921 28007KT 9999 SCT020 SCT050TCU 
     TEMPO 2912/2918 4000 SHRA BKN010 SCT040CB 
     PROB40 
     TEMPO 2914/2918 VRB15G25KT 2000 TSGRRA BKN008 BKN030CB
       
LFKB 292030Z 22002KT CAVOK 19/18 Q1016 NOSIG
TAF LFKB 292000Z 2921/3021 VRB05KT CAVOK 
     BECMG 3011/3012 14010KT 
     TEMPO 3012/3018 14010G20KT TX28/3012Z TN16/3003Z
       
LFKC 292030Z AUTO 17005KT CAVOK 19/15 Q1016 NOSIG
TAF LFKC 291700Z 2918/3018 18007KT CAVOK 
     BECMG 3008/3011 35012KT SCT050 BKN260 TX28/3012Z TN15/3003Z
       
LFKF 292030Z AUTO 05007KT CAVOK 19/15 Q1016 NOSIG
TAF LFKF 291400Z 2915/3015 14008KT CAVOK 
     BECMG 3008/3010 08010KT
       
LFKJ 292030Z AUTO 05005KT CAVOK 20/08 Q1016 NOSIG
TAF LFKJ 292000Z 2921/3021 05006KT CAVOK 
     BECMG 3009/3010 27010KT
       
LFKS 292030Z AUTO VRB03KT 9999 FEW076 20/14 Q1017
TAF LFKS 291400Z 2915/3015 14008KT 9999 FEW040
       
LFLB 292030Z AUTO 00000KT CAVOK 21/12 Q1016
TAF LFLB 291100Z 2912/3012 36006KT CAVOK 
     BECMG 2914/2916 20006KT 
     PROB30 
     TEMPO 2914/2918 FEW080CB
       
LFLC 292030Z AUTO 08003KT CAVOK 20/14 Q1016 NOSIG
TAF LFLC 292000Z 2921/3021 VRB05KT CAVOK 
     TEMPO 3006/3015 SHRA 
     PROB40 
     TEMPO 3012/3021 VRB10G25KT TSRA BKN050CB
       
LFLL 292030Z 14006KT CAVOK 24/10 Q1015 NOSIG
TAF LFLL 291700Z 2918/3024 18010KT CAVOK 
     TEMPO 3006/3012 VRB04KT 
     PROB30 
     TEMPO 3018/3024 34015G25KT 5000 TSRA SCT015 BKN040CB
       
LFLN 292030Z AUTO 26003KT CAVOK 21/15 Q1015 NOSIG
TAF LFLN 291700Z 2918/3003 33008KT CAVOK
       
LFLP 292030Z AUTO 06005KT CAVOK 22/14 Q1017
TAF LFLP 291400Z 2915/3015 22008KT CAVOK 
     PROB40 
     TEMPO 2915/2918 FEW080CB 
     BECMG 2918/2921 VRB02KT
       
LFLS 292030Z AUTO VRB03KT CAVOK 20/10 Q1017
TAF LFLS 291400Z 2915/3015 22010KT CAVOK 
     BECMG 3002/3004 VRB03KT
       
LFLU 291800Z AUTO 17008KT CAVOK 25/11 Q1014
LFLW 292030Z AUTO 12003KT CAVOK 18/12 Q1017
TAF LFLW 291400Z 2915/2924 16008G18KT CAVOK 
     BECMG 2915/2918 SCT040TCU 
     PROB40 
     TEMPO 2918/2921 30015G25KT SHRA SCT020CB BKN040 
     PROB40 
     TEMPO 2918/2924 TSRA BKN020CB
       
LFLX 292030Z AUTO 25003KT 9999 FEW049 BKN130 OVC160 19/16 Q1016 NOSIG
TAF LFLX 291700Z 2918/3024 30006KT CAVOK 
     TEMPO 2918/2920 25015G25KT 3000 SHRA SCT040CB BKN050 
     PROB30 
     TEMPO 2918/2920 20020G35KT 1500 TSRA SCT010 BKN040CB 
     TEMPO 3003/3007 BKN008 
     BECMG 3007/3009 SCT020 
     BECMG 3009/3011 SCT030 
     BECMG 3018/3021 CAVOK
       
LFLY 292030Z AUTO 18009KT CAVOK 24/11 Q1015 NOSIG
TAF LFLY 291700Z 2918/3018 18013KT CAVOK 
     TEMPO 3003/3011 VRB03KT
       
LFMC 292030Z AUTO 00000KT 9999 ////// 20/09 Q1016
LFMD 292030Z AUTO VRB03KT CAVOK 20/13 Q1016 NOSIG
TAF LFMD 291400Z 2915/3015 16008KT CAVOK 
     BECMG 2920/2922 34010KT 
     BECMG 3007/3009 16010KT
       
LFMH 292030Z AUTO 16009KT CAVOK 22/08 Q1016
TAF LFMH 291400Z 2915/3015 20010G20KT CAVOK 
     BECMG 2921/2924 VRB05KT 
     BECMG 3009/3012 FEW033TCU 
     PROB40 
     TEMPO 3012/3015 TS FEW040CB
       
LFMI 292030Z AUTO 15004KT CAVOK 21/13 Q1016 NOSIG
TAF LFMI 292000Z 2921/3021 VRB02KT CAVOK 
     BECMG 3010/3012 20012KT 
     TEMPO 3016/3021 SHRA BKN040TCU
       
LFMK 292030Z AUTO 11005KT 080V160 CAVOK 21/11 Q1016
TAF AMD LFMK 291516Z 2915/3015 30005KT CAVOK 
     TEMPO 2915/2920 09015KT 
     BECMG 2921/2923 27010KT 
     TEMPO 2920/2923 SHRA NSC 
     TEMPO 3008/3015 SHRA BKN060TCU
       
LFML 292030Z AUTO VRB02KT CAVOK 21/15 Q1016 NOSIG
TAF LFML 292000Z 2921/3103 VRB02KT CAVOK 
     BECMG 3010/3012 20012KT 
     TEMPO 3016/3022 SHRA BKN040TCU 
     BECMG 3022/3024 VRB02KT TX29/3013Z TN16/3103Z
       
LFMN 292030Z 00000KT CAVOK 21/17 Q1016 NOSIG
TAF LFMN 292000Z 2921/3103 VRB03KT CAVOK 
     BECMG 2922/2924 34010KT 
     BECMG 3007/3009 10010KT 
     PROB30 
     TEMPO 3008/3014 SCT010 
     BECMG 3018/3020 34010KT
       
LFMO 292030Z AUTO 17003KT CAVOK 22/11 Q1016 NOSIG
TAF LFMO 292000Z 2921/3021 19005KT CAVOK 
     BECMG 2921/2922 VRB02KT 
     BECMG 3012/3015 20012KT
       
LFMP 292030Z AUTO 02006KT CAVOK 21/13 Q1015 NOSIG
TAF LFMP 291400Z 2915/3015 11012KT CAVOK 
     TEMPO 2920/3011 VRB05KT 
     TEMPO 3003/3006 BKN005 
     TEMPO 3008/3012 SHRA BKN070TCU
       
LFMT 292030Z AUTO 20004KT CAVOK 21/12 Q1016 NOSIG
TAF LFMT 292000Z 2921/3021 16006KT CAVOK 
     BECMG 2921/2923 VRB02KT 
     BECMG 3001/3003 BKN005 
     BECMG 3010/3012 18010KT 
     BECMG 3019/3021 VRB02KT 
     TEMPO 3018/3021 SHRA BKN015TCU
       
LFMU 292030Z AUTO 04005KT CAVOK 18/11 Q1016 NOSIG
TAF LFMU 291400Z 2915/3015 13012KT CAVOK 
     BECMG 2920/2922 VRB05KT 
     TEMPO 2923/3006 BKN005 
     TEMPO 3010/3013 SHRA BKN080TCU
       
LFMV 292030Z AUTO 18004KT CAVOK 20/13 Q1016
TAF AMD LFMV 291646Z 2916/3015 18008KT CAVOK 
     BECMG 2922/2924 VRB03KT 
     PROB30 
     TEMPO 3004/3006 3000 BR SCT005 
     BECMG 3012/3014 20010KT
       
LFMY 292030Z AUTO 20002KT CAVOK 21/11 Q1016
TAF LFMY 291400Z 2915/3015 20015KT CAVOK 
     BECMG 2920/2922 VRB02KT 
     BECMG 3011/3013 21012KT
       
LFOA 292030Z AUTO 31004KT CAVOK 21/14 Q1016 TEMPO 4000 SHRA SCT012 BKN035TCU
TAF LFOA 292000Z 2921/3021 31008KT CAVOK 
     TEMPO 2921/3018 4000 SHRA SCT012 BKN035TCU 
     PROB30 
     TEMPO 3014/3018 2500 -TSRA BKN025CB
       
LFOB 292030Z AUTO 24005KT CAVOK 21/16 Q1014 TEMPO 2000 TSRA BKN030CB
TAF LFOB 291700Z 2918/3018 25010KT CAVOK 
     TEMPO 2918/3002 4000 SHRA BKN030CB 
     PROB30 
     TEMPO 2918/2924 2000 TSRA 
     TEMPO 3002/3005 BKN008 
     BECMG 3005/3007 BKN015 
     BECMG 3007/3009 BKN025
       
LFOC 292030Z AUTO 18003KT CAVOK 19/16 Q1015
TAF LFOC 291400Z 2915/3015 27012KT CAVOK 
     TEMPO 2915/2920 4000 SHRA SCT040TCU 
     PROB40 
     TEMPO 2915/2918 VRB15G25KT 3000 TSRA BKN020 SCT040CB 
     BECMG 3003/3004 BKN015
       
LFOE 292030Z AUTO 22005KT CAVOK 18/15 Q1015
TAF LFOE 292000Z 2921/3021 24005KT CAVOK 
     BECMG 2921/2923 31010KT BKN008 
     TEMPO 3000/3005 BKN005 
     BECMG 3005/3008 BKN020
       
LFOH 292030Z AUTO 29007KT 1000 0900 R22/1200D -RA BCFG VV/// 15/14 Q1015
TAF LFOH 291100Z 2912/3012 25010KT CAVOK 
     PROB40 
     TEMPO 2912/2918 VRB20G30KT 1500 TSRA BKN030CB 
     BECMG 2918/2920 BKN006 
     TEMPO 2918/3002 1500 RA OVC002 
     PROB30 
     TEMPO 2918/3002 TSRA BKN030CB 
     BECMG 3005/3008 BKN020
       
LFOJ 292030Z AUTO VRB03KT CAVOK 20/16 Q1015 TEMPO VRB15G25KT SCT050TCU
TAF LFOJ 292000Z 2921/3021 26010KT CAVOK 
     TEMPO 2921/2923 VRB15G25KT 5000 -SHRA SCT050TCU 
     BECMG 2923/3001 BKN011 
     PROB30 
     TEMPO 3002/3006 BKN007 
     BECMG 3006/3008 BKN015 SCT020TCU
       
LFOK 292030Z AUTO 28007KT CAVOK 22/17 Q1014 TEMPO 2000 TSRA BKN050CB
TAF LFOK 291700Z 2918/3018 26012KT CAVOK 
     PROB30 
     TEMPO 2918/2924 2000 TSRA BKN050CB
       
LFOP 292030Z AUTO 19004KT 9999 -RA NSC 18/14 Q1014 TEMPO 2000 TSRA BKN030CB BECMG 25010KT
TAF LFOP 291700Z 2918/3018 25010KT 9999 BKN030 
     PROB40 
     TEMPO 2918/2922 2000 TSRA BKN030CB 
     BECMG 2922/2924 OVC006 
     BECMG 3004/3007 BKN012 
     BECMG 3007/3009 BKN020
       
LFOT 292030Z AUTO 25005KT CAVOK 20/15 Q1015 NOSIG
TAF LFOT 291700Z 2918/3018 30007KT CAVOK 
     TEMPO 2918/2920 25015G25KT 3000 SHRA SCT040CB BKN050 
     PROB30 
     TEMPO 2918/2920 20020G35KT 1500 TSRA SCT010 BKN040CB 
     TEMPO 2923/3003 BKN020 
     TEMPO 3003/3007 BKN008 
     BECMG 3008/3010 SCT020 
     BECMG 3010/3012 SCT035
       
LFOV 292030Z AUTO 34005KT 310V010 9999 OVC006 16/15 Q1015
LFPB 292030Z AUTO 26006KT CAVOK 22/16 Q1014 TEMPO 4000 -SHRA SCT050TCU
TAF AMD LFPB 291905Z 2919/3018 27008KT CAVOK 
     TEMPO 2919/2922 SCT050TCU 
     PROB30 
     TEMPO 2919/2922 4000 -SHRA 
     PROB40 
     TEMPO 3003/3007 4500 SHRA BKN012
       
LFPG 292030Z 29006KT CAVOK 22/15 Q1015 TEMPO SCT050TCU
TAF AMD LFPG 291903Z 2918/3024 27008KT CAVOK 
     TEMPO 2919/2922 SCT050TCU 
     PROB30 
     TEMPO 2919/2922 4000 -SHRA 
     PROB40 
     TEMPO 3003/3007 4500 SHRA BKN010 TX23/2919Z TN15/3024Z
       
LFPM 292030Z AUTO 28004KT CAVOK 20/15 Q1015
LFPN 292030Z AUTO 27004KT CAVOK 20/16 Q1015 TEMPO 27015G25KT SHRA
TAF AMD LFPN 291854Z 2918/3003 27008KT CAVOK 
     PROB30 
     TEMPO 2918/2922 27015G25KT 6000 SHRA BKN025
       
LFPO 292030Z 28007KT CAVOK 21/15 Q1015 NOSIG
TAF AMD LFPO 291926Z 2919/3024 27008KT CAVOK 
     PROB30 
     TEMPO 2919/2922 27015G25KT 6000 SHRA BKN025 
     TEMPO 3003/3008 24005KT SHRA SCT012 BKN025 BKN070TCU 
     BECMG 3008/3011 30010KT BKN040 
     BECMG 3018/3021 36005KT CAVOK
       
LFPT 292030Z AUTO VRB02KT 9999 -RA FEW047 OVC086 19/17 Q1014
LFPV 292030Z AUTO 27005KT CAVOK 20/15 Q1015 NOSIG
TAF LFPV 292000Z 2921/3021 28010KT CAVOK 
     BECMG 3000/3002 BKN012 
     PROB30 
     TEMPO 3002/3007 4000 -RA BKN008 SCT030TCU 
     BECMG 3007/3009 SCT025
       
LFQA 292030Z AUTO VRB02KT CAVOK 20/16 Q1013
LFQB 292030Z AUTO 28011KT CAVOK 22/16 Q1014
LFQG 291800Z AUTO 26006KT CAVOK 25/15 Q1014
LFQQ 292030Z AUTO 18002KT 9999 ///TCU 21/16 Q1013 TEMPO VRB20G30KT 2000 TSRA BKN040CB
TAF LFQQ 291700Z 2918/3024 30010KT CAVOK 
     PROB40 
     TEMPO 2921/2924 VRB20G30KT 2000 TSRA BKN040CB 
     BECMG 3002/3005 24010KT BKN008 
     BECMG 3006/3008 BKN020
       
LFRB 292030Z AUTO 24008KT 9999 BKN010 BKN016 OVC032 15/13 Q1016 BECMG SCT025
TAF AMD LFRB 292040Z 2920/3024 24008KT 9999 BKN010 BKN016 OVC032 
     PROB30 
     TEMPO 3000/3006 3000 BR OVC004
       
LFRC 292030Z AUTO 24008KT 9999 FEW005 12/12 Q1014
TAF LFRC 291400Z 2915/2924 24010KT 9999 BKN015 
     TEMPO 2915/2924 2000 BR BKN003
       
LFRD 292030Z AUTO 05003KT 8000 1700 FEW017 13/12 Q1015 TEMPO BKN008
TAF LFRD 291700Z 2918/3018 30005KT 9999 BKN020 
     TEMPO 2918/2921 4000 SHRA BKN030TCU 
     PROB30 
     TEMPO 2918/3006 BKN008 
     BECMG 3000/3002 VRB03KT 
     BECMG 3009/3012 33010KT
       
LFRG 292030Z AUTO 31006KT 280V350 0900 0700 R30/0650D FG VV/// 15/15 Q1015
TAF AMD LFRG 291615Z 2916/2924 27010KT 9999 SCT020 
     TEMPO 2916/2922 4000 SHRA BKN008 BKN030CB 
     PROB30 
     TEMPO 2916/2922 3000 TSRA BKN015CB 
     BECMG 2916/2918 VRB03KT
       
LFRH 292030Z AUTO 28005KT CAVOK 15/13 Q1016 TEMPO SHRA SCT015TCU
TAF LFRH 291700Z 2918/3018 25010KT 9999 SCT020 BKN025 
     PROB30 
     TEMPO 2918/2922 SHRA SCT015TCU 
     BECMG 2922/2924 OVC015 
     PROB30 
     TEMPO 3000/3007 3000 BR OVC005 
     BECMG 3008/3010 OVC025 
     BECMG 3014/3016 25010G20KT SCT035
       
LFRI 292030Z AUTO 28004KT 9999 BKN010 BKN080 OVC100 16/15 Q1016 BECMG SCT012 SCT025
TAF AMD LFRI 292046Z 2920/3018 24006KT 9999 BKN010 BKN080 
     BECMG 2921/2923 32006KT 
     PROB30 
     TEMPO 3005/3007 4000 BR 
     BECMG 3007/3009 BKN020 
     BECMG 3015/3017 CAVOK
       
LFRJ 292030Z AUTO 23009KT 9999 FEW009 SCT029 OVC035 15/13 Q1016
TAF LFRJ 291400Z 2915/2924 30008KT 9999 BKN016 
     BECMG 2919/2921 23010KT BKN010
       
LFRK 292030Z AUTO 27008KT 9999 OVC007 16/15 Q1015
TAF AMD LFRK 291616Z 2916/2924 27010KT 9999 SCT020 
     TEMPO 2916/2922 4000 SHRA BKN008 BKN030CB 
     PROB30 
     TEMPO 2916/2922 3000 TSRA BKN015CB
       
LFRL 292030Z AUTO 23007KT 9999 BKN006 BKN010 BKN015 15/13 Q1016
TAF LFRL 291400Z 2915/2924 28008KT 9999 BKN025 
     TEMPO 2915/2919 BKN013 
     BECMG 2919/2921 BKN010
       
LFRM 292030Z AUTO 26003KT 220V300 9999 FEW031 OVC130 20/16 Q1015 NOSIG
TAF LFRM 291700Z 2918/3003 22007KT CAVOK 
     PROB30 
     TEMPO 2918/2921 VRB15G25KT 2000 TSRA SCT010 BKN035CB 
     BECMG 2923/3001 BKN006
       
LFRN 292030Z AUTO 04004KT 9999 OVC012 16/15 Q1015 TEMPO BKN008
TAF LFRN 291700Z 2918/3018 35008KT 9999 BKN020 
     TEMPO 2918/2921 4000 SHRA BKN030TCU 
     PROB30 
     TEMPO 2918/3006 BKN008 
     BECMG 3000/3002 VRB03KT 
     BECMG 3015/3018 01008KT
       
LFRO 292030Z AUTO 24004KT 9999 OVC042 14/12 Q1016 BECMG BKN014
TAF AMD LFRO 291724Z 2917/3012 26010KT 9999 FEW020 BKN030 
     BECMG 2918/2921 BKN014 
     PROB30 
     TEMPO 3000/3006 3000 BR OVC003 
     BECMG 3009/3012 SCT020
       
LFRQ 292030Z AUTO 27004KT 9999 FEW014 BKN036 15/13 Q1016 NOSIG
TAF LFRQ 291700Z 2918/3003 27010KT 9999 SCT025 
     PROB30 
     TEMPO 3000/3003 3000 BR OVC004
       
LFRS 292030Z AUTO 25004KT 9999 FEW043 BKN100 15/14 Q1016 NOSIG
TAF LFRS 291700Z 2918/3024 24006KT 9999 SCT012 SCT025 
     PROB30 
     TEMPO 2918/2920 BKN010 
     BECMG 2920/2922 32006KT 
     BECMG 3002/3005 BKN015 
     BECMG 3007/3009 BKN020 
     BECMG 3016/3018 CAVOK
       
LFRT 292030Z AUTO 32003KT 9999 FEW023 BKN040 BKN180 14/12 Q1015
LFRU 292000Z AUTO 24007KT 9999 FEW021 OVC041 15/12 Q1015
LFRV 292030Z AUTO 27003KT CAVOK 15/14 Q1015
LFRZ 292030Z AUTO 27006KT 9999 FEW010 BKN068 16/14 Q1016 NOSIG
TAF LFRZ 291700Z 2918/3018 28008KT 9999 SCT012 SCT025 
     TEMPO 2918/2920 BKN010 
     BECMG 3002/3005 BKN015 
     BECMG 3007/3009 BKN020 
     BECMG 3015/3017 CAVOK
       
LFSB 292035Z 16007KT 140V200 9999 -TSRA SCT060CB SCT096 BKN110 25/11 Q1015 NOSIG
TAF AMD LFSB 291943Z 2919/3018 27005KT CAVOK 
     TEMPO 2919/2922 4000 TSRA BKN060CB 
     TEMPO 3010/3018 FEW060CB 
     TEMPO 3012/3018 3000 TSRA SCT060CB 
     PROB30 
     TEMPO 3014/3018 TSGRRA
       
LFSD 292030Z AUTO 34004KT 330V030 CAVOK 22/12 Q1014
LFSG 292030Z AUTO 19003KT 180V270 CAVOK 22/14 Q1015
LFSI 292030Z AUTO 23003KT CAVOK 24/16 Q1014
TAF LFSI 292000Z 2921/3021 27008KT CAVOK 
     TEMPO 2921/3006 FEW050CB SCT080 
     TEMPO 3006/3015 30015G25KT 3000 SHRA SCT030 BKN050CB
       
LFSL 292030Z AUTO 30003KT CAVOK 20/14 Q1016
TAF LFSL 291400Z 2915/2924 23006KT CAVOK 
     BECMG 2915/2917 SCT080TCU BKN130 
     BECMG 2917/2919 BKN050 FEW070CB OVC120 
     PROB40 
     TEMPO 2918/2924 SHRA 
     PROB30 
     TEMPO 2919/2923 VRB20G30KT 3000
       
LFSN 292030Z AUTO VRB02KT CAVOK 25/13 Q1014
LFSO 292030Z AUTO 22003KT CAVOK 23/13 Q1015 NOSIG
TAF LFSO 292000Z 2921/3021 28005KT CAVOK 
     PROB40 
     TEMPO 3008/3015 VRB15G25KT 3000 SHRA SCT035 BKN060CB 
     PROB30 
     TEMPO 3011/3017 VRB15G30KT 1500 TSRA BKN040 BKN050CB
       
LFST 292030Z AUTO VRB03KT CAVOK 25/13 Q1013 NOSIG
TAF LFST 291700Z 2918/3018 30005KT CAVOK 
     TEMPO 2922/3003 VRB03KT 
     BECMG 3009/3012 SCT055 FEW060CB 
     PROB40 
     TEMPO 3012/3018 30015G27KT 4500 TSRA BKN045 SCT050CB
       
LFSX 292030Z AUTO 11002KT CAVOK 22/14 Q1015 NOSIG
TAF LFSX 292000Z 2921/3021 12004KT CAVOK 
     TEMPO 3012/3018 3500 SHRA SCT050TCU 
     PROB40 
     TEMPO 3012/3018 VRB15G25KT 2000 TSRA SCT040CB
       
LFTH 292030Z AUTO 00000KT CAVOK 19/16 Q1016 NOSIG
TAF LFTH 292000Z 2921/3021 VRB02KT CAVOK 
     BECMG 3010/3012 22012KT 
     BECMG 3014/3016 VRB02KT 
     TEMPO 3016/3021 SHRA BKN040TCU
       
LFTW 292030Z AUTO 22004KT CAVOK 20/14 Q1016
TAF LFTW 291400Z 2915/3015 18010KT CAVOK 
     TEMPO 2921/3005 BKN005 
     PROB30 
     TEMPO 2921/3003 4000 BR BKN003 
     TEMPO 2922/3012 VRB03KT
       
LFVP 292000Z 26012KT CAVOK 10/01 Q1020 NOSIG
TAF LFVP 291700Z 2918/3003 21007KT CAVOK
       
LFYR 292030Z AUTO 00000KT CAVOK 18/15 Q1015
LFRG 292030Z AUTO 31006KT 280V350 0900 0700 R30/0650D FG VV/// 15/15 Q1015
TAF AMD LFRG 291615Z 2916/2924 27010KT 9999 SCT020 
     TEMPO 2916/2922 4000 SHRA BKN008 BKN030CB 
     PROB30 
     TEMPO 2916/2922 3000 TSRA BKN015CB 
     BECMG 2916/2918 VRB03KT
       
LFRN 292030Z AUTO 04004KT 9999 OVC012 16/15 Q1015 TEMPO BKN008
TAF LFRN 291700Z 2918/3018 35008KT 9999 BKN020 
     TEMPO 2918/2921 4000 SHRA BKN030TCU 
     PROB30 
     TEMPO 2918/3006 BKN008 
     BECMG 3000/3002 VRB03KT 
     BECMG 3015/3018 01008KT
       
LFKF 292030Z AUTO 05007KT CAVOK 19/15 Q1016 NOSIG
TAF LFKF 291400Z 2915/3015 14008KT CAVOK 
     BECMG 3008/3010 08010KT
       
LFGJ 292030Z AUTO 13001KT CAVOK 22/11 Q1014
TAF LFGJ 291400Z 2915/2924 20010KT CAVOK
       
LFOB 292030Z AUTO 24005KT CAVOK 21/16 Q1014 TEMPO 2000 TSRA BKN030CB
TAF LFOB 291700Z 2918/3018 25010KT CAVOK 
     TEMPO 2918/3002 4000 SHRA BKN030CB 
     PROB30 
     TEMPO 2918/2924 2000 TSRA 
     TEMPO 3002/3005 BKN008 
     BECMG 3005/3007 BKN015 
     BECMG 3007/3009 BKN025
       
LFPN 292030Z AUTO 27004KT CAVOK 20/16 Q1015 TEMPO 27015G25KT SHRA
TAF AMD LFPN 291854Z 2918/3003 27008KT CAVOK 
     PROB30 
     TEMPO 2918/2922 27015G25KT 6000 SHRA BKN025
       
LFOT 292030Z AUTO 25005KT CAVOK 20/15 Q1015 NOSIG
TAF LFOT 291700Z 2918/3018 30007KT CAVOK 
     TEMPO 2918/2920 25015G25KT 3000 SHRA SCT040CB BKN050 
     PROB30 
     TEMPO 2918/2920 20020G35KT 1500 TSRA SCT010 BKN040CB 
     TEMPO 2923/3003 BKN020 
     TEMPO 3003/3007 BKN008 
     BECMG 3008/3010 SCT020 
     BECMG 3010/3012 SCT035
       
LFOP 292030Z AUTO 19004KT 9999 -RA NSC 18/14 Q1014 TEMPO 2000 TSRA BKN030CB BECMG 25010KT
TAF LFOP 291700Z 2918/3018 25010KT 9999 BKN030 
     PROB40 
     TEMPO 2918/2922 2000 TSRA BKN030CB 
     BECMG 2922/2924 OVC006 
     BECMG 3004/3007 BKN012 
     BECMG 3007/3009 BKN020
       
LFOK 292030Z AUTO 28007KT CAVOK 22/17 Q1014 TEMPO 2000 TSRA BKN050CB
TAF LFOK 291700Z 2918/3018 26012KT CAVOK 
     PROB30 
     TEMPO 2918/2924 2000 TSRA BKN050CB
       
LFPV 292030Z AUTO 27005KT CAVOK 20/15 Q1015 NOSIG
TAF LFPV 292000Z 2921/3021 28010KT CAVOK 
     BECMG 3000/3002 BKN012 
     PROB30 
     TEMPO 3002/3007 4000 -RA BKN008 SCT030TCU 
     BECMG 3007/3009 SCT025
       
LFMU 292030Z AUTO 04005KT CAVOK 18/11 Q1016 NOSIG
TAF LFMU 291400Z 2915/3015 13012KT CAVOK 
     BECMG 2920/2922 VRB05KT 
     TEMPO 2923/3006 BKN005 
     TEMPO 3010/3013 SHRA BKN080TCU
       
LFPM 292030Z AUTO 28004KT CAVOK 20/15 Q1015